WetterOnline ( https://www.wetteronline.de )

Wetter aktuell Essen

Aktuelles Wetter: Essen (161m)

6-stündlich | Neueste Meldungen
Ortszeit Temperatur Wetter
So, 29.11. 7:00 0.8° C bedeckt
So, 29.11. 1:00 2.6° C bedeckt
Sa, 28.11. 19:00 2.5° C bedeckt
Sa, 28.11. 13:00 6.3° C wolkenlos
Sa, 28.11. 7:00 3.1° C wolkig
Sa, 28.11. 1:00 2.2° C wolkenlos
Fr, 27.11. 19:00 4.1° C wolkenlos
Fr, 27.11. 13:00 7.6° C fast wolkenlos
Ortszeit Temperatur Wetter
So, 29.11. 11:30 0.4° C bewölkt
So, 29.11. 11:20 0.4° C bewölkt
So, 29.11. 11:10 0.4° C bewölkt
So, 29.11. 11:00 0.3° C bedeckt
So, 29.11. 10:50 0.3° C bedeckt
So, 29.11. 10:40 0.3° C bedeckt
So, 29.11. 10:30 0.2° C bedeckt
So, 29.11. 10:00 0.3° C bedeckt
Ortszeit Relative Feuchte Sichtweite
So, 29.11. 7:00 93% 6 km
So, 29.11. 1:00 90% 8 km
Sa, 28.11. 19:00 94% 8 km
Sa, 28.11. 13:00 77% 23 km
Sa, 28.11. 7:00 90% 15 km
Sa, 28.11. 1:00 98% 3.6 km
Fr, 27.11. 19:00 91% 12 km
Fr, 27.11. 13:00 74% 24 km
Ortszeit Relative Feuchte Sichtweite
So, 29.11. 11:30 83% 12 km
So, 29.11. 11:20 83% -
So, 29.11. 11:10 83% -
So, 29.11. 11:00 86% 11 km
So, 29.11. 10:50 86% -
So, 29.11. 10:40 87% -
So, 29.11. 10:30 88% 10 km
So, 29.11. 10:00 88% 9 km
Ortszeit Niederschlagsmenge Niederschlagsart
So, 29.11. 7:00 0.0 l/m2 in 12 Std. -
So, 29.11. 1:00 0.0 l/m2 in 6 Std. -
Sa, 28.11. 19:00 0.0 l/m2 in 12 Std. -
Sa, 28.11. 13:00 0.0 l/m2 in 6 Std. -
Sa, 28.11. 7:00 0.0 l/m2 in 12 Std. -
Sa, 28.11. 1:00 0.0 l/m2 in 6 Std. -
Fr, 27.11. 19:00 0.0 l/m2 in 12 Std. -
Fr, 27.11. 13:00 0.0 l/m2 in 6 Std. -
Ortszeit Niederschlagsmenge Niederschlagsart
So, 29.11. 11:30 0.0 l/m2 in 1 Std. -
So, 29.11. 11:20 keine Meldung -
So, 29.11. 11:10 keine Meldung -
So, 29.11. 11:00 0.0 l/m2 in 1 Std. -
So, 29.11. 10:50 keine Meldung -
So, 29.11. 10:40 keine Meldung -
So, 29.11. 10:30 0.0 l/m2 in 1 Std. -
So, 29.11. 10:00 0.0 l/m2 in 1 Std. -
Ortszeit Stärke Spitze Richtung
km/h Bft. km/h Grad Sektor
So, 29.11. 7:00 4 1 22 50° NO
So, 29.11. 1:00 11 2 36 60° NO
Sa, 28.11. 19:00 17 3 35 70° O
Sa, 28.11. 13:00 11 2 18 40° NO
Sa, 28.11. 7:00 9 2 13 90° O
Sa, 28.11. 1:00 6 1 13 90° O
Fr, 27.11. 19:00 4 1 11 170° S
Fr, 27.11. 13:00 6 1 11 170° S
Ortszeit Stärke Spitze Richtung
km/h Bft. km/h Grad Sektor
So, 29.11. 11:30 4 1 7 130° SO
So, 29.11. 11:20 4 1 - 130° SO
So, 29.11. 11:10 4 1 - 140° SO
So, 29.11. 11:00 7 2 14 150° SO
So, 29.11. 10:50 7 2 - 150° SO
So, 29.11. 10:40 7 2 - 120° SO
So, 29.11. 10:30 6 1 13 130° SO
So, 29.11. 10:00 7 2 11 90° O
Ortszeit Untergrenze Bedeckung Gattung
total tief tief mittel hoch
So, 29.11. 7:00 120 m 8/8 8/8 - - -
So, 29.11. 1:00 180 m 8/8 8/8 - - -
Sa, 28.11. 19:00 120 m 8/8 8/8 - - -
Sa, 28.11. 13:00 - 0/8 0/8 - - -
Sa, 28.11. 7:00 2400 m 6/8 6/8 - - -
Sa, 28.11. 1:00 - 0/8 0/8 - - -
Fr, 27.11. 19:00 - 0/8 0/8 - - -
Fr, 27.11. 13:00 2400 m 1/8 1/8 - - -
Ortszeit Bedeckungsgrad in Achtel und Wolkenuntergrenze
So, 29.11. 11:30 7(300m)
So, 29.11. 11:20 7(300m)
So, 29.11. 11:10 6(240m) 7(390m)
So, 29.11. 11:00 8(210m)
So, 29.11. 10:50 8(210m)
So, 29.11. 10:40 8(210m)
So, 29.11. 10:30 8(210m)
So, 29.11. 10:00 8(210m)
Ortszeit Luftdruck NN (hPa) Tendenz (hPa in 3 Std.)
So, 29.11. 7:00 1026 + 0,2
So, 29.11. 1:00 1025 + 0,6
Sa, 28.11. 19:00 1022 + 1,0
Sa, 28.11. 13:00 1021 + 0,2
Sa, 28.11. 7:00 1020 + 0,3
Sa, 28.11. 1:00 1020 0,0
Fr, 27.11. 19:00 1020 + 0,2
Fr, 27.11. 13:00 1020 - 0,6
Ortszeit Luftdruck NN (hPa) Tendenz (hPa in 3 Std.)
So, 29.11. 11:30 1027 + 0,9
So, 29.11. 11:20 1027 keine Meldung
So, 29.11. 11:10 1027 keine Meldung
So, 29.11. 11:00 1027 + 1,1
So, 29.11. 10:50 1027 keine Meldung
So, 29.11. 10:40 1027 keine Meldung
So, 29.11. 10:30 1027 + 1,3
So, 29.11. 10:00 1027 + 1,5
Ortszeit Schneehöhe (cm)
So, 29.11. 7:00 0
So, 29.11. 1:00 0
Sa, 28.11. 19:00 0
Sa, 28.11. 13:00 0
Sa, 28.11. 7:00 0
Sa, 28.11. 1:00 0
Fr, 27.11. 19:00 0
Fr, 27.11. 13:00 0
Ortszeit Schneehöhe (cm)
So, 29.11. 11:30 0
So, 29.11. 11:20 0
So, 29.11. 11:10 0
So, 29.11. 11:00 0
So, 29.11. 10:50 0
So, 29.11. 10:40 0
So, 29.11. 10:30 0
So, 29.11. 10:00 0
Link zu dieser Seite / Seite empfehlen

Das Wetter in ...